Time;durP1;ratioP1;P1;durP2;ratioP2;P2;SDS_P1;SDS_P2;PMS_P1;PMS_P2;Temp;Humidity;BMP_temperature;BMP_pressure;BME280_temperature;BME280_humidity;BME280_pressure;Samples;Min_cycle;Max_cycle;Signal;HPM_P1;HPM_P2
2022/05/22 00:01:26;;;;;;;8.95;4.97;;;;;;;;;;5055624;28;20384;-66
2022/05/22 00:03:53;;;;;;;9.32;4.82;;;;;;;;;;5055191;28;20031;-67
2022/05/22 00:06:20;;;;;;;16.13;4.55;;;;;;;;;;5055490;28;20029;-66
2022/05/22 00:08:46;;;;;;;10.63;4.80;;;;;;;;;;5055570;28;20021;-66
2022/05/22 00:11:12;;;;;;;9.10;5.18;;;;;;;;;;5055197;28;20040;-67
2022/05/22 00:13:38;;;;;;;15.52;5.20;;;;;;;;;;5055564;28;20389;-68
2022/05/22 00:18:49;;;;;;;7.60;5.25;;;;;;;;;;5055611;28;20382;-68
2022/05/22 00:21:15;;;;;;;9.90;5.30;;;;;;;;;;5055387;28;20021;-66
2022/05/22 00:23:43;;;;;;;11.52;5.03;;;;;;;;;;5055190;28;20071;-66
2022/05/22 00:26:09;;;;;;;9.85;5.05;;;;;;;;;;5054941;28;20529;-68
2022/05/22 00:28:35;;;;;;;9.88;5.38;;;;;;;;;;5055100;28;20112;-68
2022/05/22 00:31:01;;;;;;;10.90;5.07;;;;;;;;;;5054898;28;20025;-66
2022/05/22 00:33:28;;;;;;;10.20;4.22;;;;;;;;;;5055047;28;20048;-65
2022/05/22 00:35:54;;;;;;;8.23;4.80;;;;;;;;;;5055047;28;20037;-66
2022/05/22 00:38:20;;;;;;;6.15;4.65;;;;;;;;;;5054784;28;20053;-68
2022/05/22 00:40:46;;;;;;;11.93;4.90;;;;;;;;;;5055172;28;20036;-66
2022/05/22 00:43:32;;;;;;;5.82;4.53;;;;;;;;;;5054834;28;20039;-68
2022/05/22 00:45:58;;;;;;;9.88;4.50;;;;;;;;;;5055042;28;20068;-66
2022/05/22 00:48:25;;;;;;;10.65;5.03;;;;;;;;;;5054847;28;20366;-68
2022/05/22 00:50:52;;;;;;;7.85;4.15;;;;;;;;;;5054597;28;20100;-66
2022/05/22 00:53:19;;;;;;;5.88;4.50;;;;;;;;;;5054554;28;20497;-66
2022/05/22 00:55:45;;;;;;;13.25;5.13;;;;;;;;;;5054596;28;20036;-68
2022/05/22 00:58:13;;;;;;;9.48;4.95;;;;;;;;;;5053045;28;20021;-66
2022/05/22 01:00:39;;;;;;;7.60;4.78;;;;;;;;;;5051834;28;20029;-67
2022/05/22 01:03:40;;;;;;;10.18;5.47;;;;;;;;;;5051482;28;20079;-66
2022/05/22 01:06:03;;;;;;;10.25;4.57;;;;;;;;;;5053837;28;20040;-67
2022/05/22 01:08:31;;;;;;;8.32;4.88;;;;;;;;;;5054237;28;20401;-66
2022/05/22 01:11:03;;;;;;;9.50;4.35;;;;;;;;;;5054529;28;20056;-66
2022/05/22 01:13:34;;;;;;;9.68;4.70;;;;;;;;;;5053538;28;20071;-67
2022/05/22 01:16:00;;;;;;;10.88;5.07;;;;;;;;;;5053554;28;20032;-66
2022/05/22 01:18:27;;;;;;;10.52;5.18;;;;;;;;;;5053888;28;20473;-66
2022/05/22 01:20:54;;;;;;;10.30;5.60;;;;;;;;;;5053643;28;20032;-66
2022/05/22 01:23:21;;;;;;;8.93;4.45;;;;;;;;;;5053871;28;20491;-68
2022/05/22 01:25:47;;;;;;;13.77;5.18;;;;;;;;;;5053923;28;20385;-66
2022/05/22 01:28:14;;;;;;;12.20;5.30;;;;;;;;;;5053642;28;20029;-66
2022/05/22 01:30:40;;;;;;;10.45;5.03;;;;;;;;;;5053858;28;20078;-68
2022/05/22 01:33:07;;;;;;;10.70;4.80;;;;;;;;;;5053906;28;20025;-67
2022/05/22 01:35:35;;;;;;;11.25;5.60;;;;;;;;;;5053483;28;20025;-66
2022/05/22 01:38:01;;;;;;;11.30;5.30;;;;;;;;;;5053544;28;20032;-66
2022/05/22 01:40:27;;;;;;;12.73;5.82;;;;;;;;;;5053430;28;20025;-66
2022/05/22 01:42:53;;;;;;;12.27;5.35;;;;;;;;;;5053436;28;20033;-66
2022/05/22 01:45:21;;;;;;;11.60;5.22;;;;;;;;;;5053651;28;20075;-66
2022/05/22 01:47:47;;;;;;;13.18;6.07;;;;;;;;;;5053568;28;20051;-66
2022/05/22 01:50:13;;;;;;;10.00;5.55;;;;;;;;;;5053632;28;20040;-68
2022/05/22 01:52:40;;;;;;;10.73;5.28;;;;;;;;;;5053468;28;20025;-68
2022/05/22 01:55:08;;;;;;;11.68;5.15;;;;;;;;;;5053493;28;20028;-66
2022/05/22 01:57:34;;;;;;;11.00;5.80;;;;;;;;;;5053129;28;20477;-66
2022/05/22 02:00:00;;;;;;;14.38;6.05;;;;;;;;;;5053143;28;20441;-65
2022/05/22 02:02:26;;;;;;;7.63;5.43;;;;;;;;;;5053080;28;20064;-66
2022/05/22 02:04:52;;;;;;;11.20;5.20;;;;;;;;;;5053180;28;20079;-69
2022/05/22 02:10:04;;;;;;;7.45;5.38;;;;;;;;;;5052805;28;20040;-66
2022/05/22 02:12:30;;;;;;;11.70;5.68;;;;;;;;;;5053099;28;20041;-66
2022/05/22 02:14:56;;;;;;;15.43;5.97;;;;;;;;;;5052784;28;20021;-69
2022/05/22 02:17:22;;;;;;;17.92;5.40;;;;;;;;;;5052799;28;20114;-67
2022/05/22 02:19:48;;;;;;;11.63;5.25;;;;;;;;;;5053143;28;20454;-66
2022/05/22 02:22:14;;;;;;;13.23;5.35;;;;;;;;;;5053043;28;20020;-68
2022/05/22 02:24:40;;;;;;;11.38;5.32;;;;;;;;;;5053077;28;20108;-68
2022/05/22 02:27:07;;;;;;;11.75;5.78;;;;;;;;;;5051972;28;20106;-66
2022/05/22 02:29:34;;;;;;;20.02;5.47;;;;;;;;;;5052976;28;20057;-66
2022/05/22 02:32:00;;;;;;;14.20;6.10;;;;;;;;;;5052972;28;20032;-67
2022/05/22 02:34:26;;;;;;;16.85;5.35;;;;;;;;;;5052562;28;20017;-66
2022/05/22 02:36:52;;;;;;;8.82;5.25;;;;;;;;;;5052400;28;20037;-66
2022/05/22 02:39:18;;;;;;;11.48;5.32;;;;;;;;;;5053137;28;20021;-67
2022/05/22 02:41:45;;;;;;;11.63;5.03;;;;;;;;;;5053083;28;20107;-66
2022/05/22 02:44:11;;;;;;;8.00;5.20;;;;;;;;;;5052919;28;20025;-66
2022/05/22 02:46:37;;;;;;;7.07;5.10;;;;;;;;;;5052811;28;20025;-67
2022/05/22 02:49:03;;;;;;;10.27;5.60;;;;;;;;;;5052644;28;20109;-66
2022/05/22 02:51:29;;;;;;;9.65;5.07;;;;;;;;;;5052805;28;20029;-68
2022/05/22 02:53:56;;;;;;;14.88;4.97;;;;;;;;;;5052250;28;20053;-67
2022/05/22 02:56:25;;;;;;;9.02;5.28;;;;;;;;;;5052218;28;20044;-66
2022/05/22 02:58:51;;;;;;;8.60;4.78;;;;;;;;;;5053459;28;20028;-68
2022/05/22 03:01:17;;;;;;;7.25;4.70;;;;;;;;;;5052775;28;20033;-66
2022/05/22 03:03:43;;;;;;;8.38;5.45;;;;;;;;;;5052599;28;20027;-66
2022/05/22 03:08:54;;;;;;;10.38;5.60;;;;;;;;;;5052603;28;20143;-66
2022/05/22 03:11:20;;;;;;;11.00;5.30;;;;;;;;;;5052209;28;20033;-68
2022/05/22 03:13:46;;;;;;;8.90;5.15;;;;;;;;;;5052411;28;20017;-66
2022/05/22 03:16:12;;;;;;;9.45;4.90;;;;;;;;;;5052429;28;20033;-66
2022/05/22 03:18:39;;;;;;;7.30;4.93;;;;;;;;;;5052322;28;20100;-66
2022/05/22 03:21:05;;;;;;;11.15;5.10;;;;;;;;;;5052164;28;20466;-67
2022/05/22 03:23:31;;;;;;;8.98;5.15;;;;;;;;;;5052315;28;20424;-68
2022/05/22 03:25:58;;;;;;;9.95;5.28;;;;;;;;;;5052110;28;20099;-68
2022/05/22 03:28:24;;;;;;;13.98;5.78;;;;;;;;;;5052150;28;20449;-68
2022/05/22 03:30:50;;;;;;;12.20;5.40;;;;;;;;;;5052327;28;20095;-66
2022/05/22 03:33:17;;;;;;;13.15;5.25;;;;;;;;;;5052398;28;20055;-66
2022/05/22 03:35:43;;;;;;;9.93;5.03;;;;;;;;;;5052524;28;20041;-68
2022/05/22 03:38:09;;;;;;;8.43;5.07;;;;;;;;;;5054401;28;20108;-66
2022/05/22 03:40:45;;;;;;;10.32;5.05;;;;;;;;;;5055790;28;20119;-66
2022/05/22 03:43:12;;;;;;;9.13;5.03;;;;;;;;;;5056034;28;20033;-66
2022/05/22 03:45:38;;;;;;;11.23;5.22;;;;;;;;;;5055647;28;20052;-66
2022/05/22 03:48:04;;;;;;;8.57;4.90;;;;;;;;;;5056015;28;20082;-66
2022/05/22 03:50:30;;;;;;;10.77;5.22;;;;;;;;;;5055853;28;20359;-66
2022/05/22 03:52:56;;;;;;;9.27;5.38;;;;;;;;;;5055573;28;20479;-66
2022/05/22 03:55:22;;;;;;;7.82;4.63;;;;;;;;;;5055496;28;20036;-66
2022/05/22 03:57:49;;;;;;;6.18;4.57;;;;;;;;;;5055814;28;20389;-66
2022/05/22 04:00:17;;;;;;;9.00;4.82;;;;;;;;;;5055729;28;20414;-66
2022/05/22 04:02:43;;;;;;;13.52;6.00;;;;;;;;;;5055678;28;20082;-66
2022/05/22 04:05:09;;;;;;;8.75;5.25;;;;;;;;;;5055557;28;20389;-66
2022/05/22 04:07:37;;;;;;;9.23;5.10;;;;;;;;;;5055504;28;20024;-68
2022/05/22 04:10:03;;;;;;;9.55;5.20;;;;;;;;;;5055295;28;20522;-68
2022/05/22 04:12:29;;;;;;;8.75;4.85;;;;;;;;;;5055223;28;20560;-65
2022/05/22 04:14:55;;;;;;;16.98;5.47;;;;;;;;;;5055281;28;20055;-68
2022/05/22 04:17:21;;;;;;;9.00;4.82;;;;;;;;;;5055498;28;20037;-66
2022/05/22 04:19:47;;;;;;;7.65;4.85;;;;;;;;;;5055233;28;20027;-66
2022/05/22 04:22:13;;;;;;;7.88;4.82;;;;;;;;;;5055201;28;20037;-66
2022/05/22 04:27:24;;;;;;;10.30;5.50;;;;;;;;;;5055348;28;20090;-67
2022/05/22 04:29:50;;;;;;;10.45;5.40;;;;;;;;;;5055210;28;20071;-68
2022/05/22 04:32:16;;;;;;;5.57;5.03;;;;;;;;;;5055205;28;20029;-68
2022/05/22 04:34:42;;;;;;;10.18;5.05;;;;;;;;;;5054589;28;20115;-66
2022/05/22 04:37:08;;;;;;;7.75;4.78;;;;;;;;;;5054932;28;20044;-69
2022/05/22 04:39:34;;;;;;;11.38;5.85;;;;;;;;;;5054609;28;20021;-66
2022/05/22 04:42:00;;;;;;;7.63;5.10;;;;;;;;;;5054870;28;20119;-66
2022/05/22 04:44:26;;;;;;;7.60;4.50;;;;;;;;;;5054567;28;20503;-66
2022/05/22 04:46:52;;;;;;;12.23;5.80;;;;;;;;;;5054730;28;20474;-66
2022/05/22 04:49:18;;;;;;;8.98;5.28;;;;;;;;;;5053729;28;20025;-66
2022/05/22 04:51:44;;;;;;;8.73;5.35;;;;;;;;;;5054887;28;20116;-66
2022/05/22 04:54:11;;;;;;;8.32;4.63;;;;;;;;;;5054603;28;20127;-65
2022/05/22 04:56:37;;;;;;;7.13;5.10;;;;;;;;;;5054587;28;20029;-67
2022/05/22 04:59:03;;;;;;;8.00;4.88;;;;;;;;;;5054199;28;20032;-68
2022/05/22 05:01:29;;;;;;;9.40;5.00;;;;;;;;;;5054346;28;20025;-66
2022/05/22 05:03:55;;;;;;;16.08;5.30;;;;;;;;;;5054210;28;20115;-67
2022/05/22 05:06:21;;;;;;;12.63;5.10;;;;;;;;;;5054406;28;20059;-68
2022/05/22 05:08:47;;;;;;;13.57;5.97;;;;;;;;;;5054301;28;20032;-66
2022/05/22 05:11:14;;;;;;;12.70;5.10;;;;;;;;;;5054342;28;20473;-66
2022/05/22 05:13:40;;;;;;;9.05;4.72;;;;;;;;;;5053967;28;20113;-67
2022/05/22 05:16:06;;;;;;;10.73;4.30;;;;;;;;;;5054036;28;20033;-67
2022/05/22 05:18:33;;;;;;;12.18;5.00;;;;;;;;;;5053971;28;20029;-66
2022/05/22 05:21:00;;;;;;;7.15;4.68;;;;;;;;;;5053856;28;20550;-68
2022/05/22 05:23:26;;;;;;;10.13;4.53;;;;;;;;;;5053920;28;20115;-66
2022/05/22 05:25:52;;;;;;;11.32;4.20;;;;;;;;;;5053964;28;20033;-66
2022/05/22 05:28:18;;;;;;;7.82;4.90;;;;;;;;;;5053742;28;20127;-66
2022/05/22 05:30:44;;;;;;;8.27;4.38;;;;;;;;;;5054204;28;20072;-67
2022/05/22 05:33:11;;;;;;;6.32;4.28;;;;;;;;;;5053809;28;20025;-68
2022/05/22 05:35:37;;;;;;;11.35;4.53;;;;;;;;;;5053838;28;20025;-65
2022/05/22 05:38:03;;;;;;;7.68;4.43;;;;;;;;;;5053861;28;20516;-69
2022/05/22 05:40:29;;;;;;;6.88;4.30;;;;;;;;;;5053704;28;20056;-66
2022/05/22 05:42:55;;;;;;;9.18;4.45;;;;;;;;;;5053411;28;20029;-68
2022/05/22 05:45:22;;;;;;;8.07;4.10;;;;;;;;;;5053499;28;20036;-66
2022/05/22 05:47:48;;;;;;;10.02;4.50;;;;;;;;;;5053688;28;20029;-68
2022/05/22 05:50:16;;;;;;;10.40;4.38;;;;;;;;;;5053624;28;20040;-68
2022/05/22 05:52:42;;;;;;;7.75;4.07;;;;;;;;;;5053565;28;20056;-67
2022/05/22 05:55:08;;;;;;;11.02;4.43;;;;;;;;;;5052588;28;20116;-67
2022/05/22 05:57:35;;;;;;;7.75;4.35;;;;;;;;;;5050730;28;20415;-67
2022/05/22 06:00:01;;;;;;;6.78;4.30;;;;;;;;;;5050136;28;20545;-69
2022/05/22 06:02:27;;;;;;;8.05;4.03;;;;;;;;;;5052097;28;20604;-67
2022/05/22 06:04:53;;;;;;;6.60;4.05;;;;;;;;;;5052762;28;20104;-66
2022/05/22 06:07:19;;;;;;;8.02;4.00;;;;;;;;;;5053116;28;20409;-68
2022/05/22 06:09:45;;;;;;;5.10;3.50;;;;;;;;;;5052881;28;20025;-67
2022/05/22 06:12:11;;;;;;;5.93;3.92;;;;;;;;;;5052577;28;20033;-67
2022/05/22 06:14:37;;;;;;;7.30;3.60;;;;;;;;;;5052587;28;20028;-66
2022/05/22 06:17:04;;;;;;;6.32;3.80;;;;;;;;;;5052513;28;20060;-67
2022/05/22 06:22:15;;;;;;;7.20;3.60;;;;;;;;;;5050604;28;20135;-67
2022/05/22 06:24:42;;;;;;;7.95;3.30;;;;;;;;;;5051904;28;20036;-66
2022/05/22 06:27:08;;;;;;;7.55;3.10;;;;;;;;;;5052617;28;20029;-66
2022/05/22 06:29:34;;;;;;;11.95;3.20;;;;;;;;;;5052777;28;20025;-65
2022/05/22 06:32:00;;;;;;;10.40;3.35;;;;;;;;;;5053059;28;20440;-66
2022/05/22 06:34:26;;;;;;;9.32;3.25;;;;;;;;;;5052705;28;20025;-67
2022/05/22 06:36:52;;;;;;;4.55;3.03;;;;;;;;;;5052145;28;20028;-65
2022/05/22 06:42:04;;;;;;;5.82;2.85;;;;;;;;;;5052032;28;20086;-67
2022/05/22 06:44:30;;;;;;;9.55;3.08;;;;;;;;;;5049780;28;20091;-67
2022/05/22 06:46:56;;;;;;;5.03;3.25;;;;;;;;;;5049063;28;20025;-67
2022/05/22 06:49:22;;;;;;;8.95;3.03;;;;;;;;;;5048616;28;20074;-66
2022/05/22 06:51:48;;;;;;;8.40;2.75;;;;;;;;;;5046460;28;20033;-66
2022/05/22 06:54:14;;;;;;;6.75;2.67;;;;;;;;;;5047465;28;20410;-66
2022/05/22 06:56:41;;;;;;;7.60;2.90;;;;;;;;;;5049804;28;20033;-66
2022/05/22 06:59:07;;;;;;;8.00;2.72;;;;;;;;;;5052604;28;20025;-68
2022/05/22 07:01:33;;;;;;;6.25;3.05;;;;;;;;;;5052493;28;20060;-66
2022/05/22 07:03:59;;;;;;;9.52;2.67;;;;;;;;;;5052210;28;20028;-66
2022/05/22 07:06:25;;;;;;;6.82;2.72;;;;;;;;;;5051063;28;20033;-67
2022/05/22 07:08:51;;;;;;;4.88;2.47;;;;;;;;;;5049503;28;20100;-67
2022/05/22 07:14:02;;;;;;;7.93;2.50;;;;;;;;;;5056024;28;20515;-66
2022/05/22 07:16:28;;;;;;;4.63;2.30;;;;;;;;;;5056485;28;20119;-66
2022/05/22 07:18:54;;;;;;;9.25;2.40;;;;;;;;;;5056308;28;20024;-66
2022/05/22 07:21:20;;;;;;;4.18;2.45;;;;;;;;;;5055889;28;20290;-66
2022/05/22 07:23:46;;;;;;;8.73;2.47;;;;;;;;;;5055762;28;20021;-66
2022/05/22 07:26:12;;;;;;;7.68;2.45;;;;;;;;;;5055899;28;20075;-67
2022/05/22 07:28:38;;;;;;;6.78;2.10;;;;;;;;;;5056024;28;20021;-66
2022/05/22 07:31:04;;;;;;;7.82;2.20;;;;;;;;;;5055845;28;20025;-66
2022/05/22 07:33:30;;;;;;;4.75;2.17;;;;;;;;;;5055871;28;20033;-68
2022/05/22 07:35:57;;;;;;;7.68;2.30;;;;;;;;;;5054829;28;20031;-65
2022/05/22 07:38:24;;;;;;;5.20;2.38;;;;;;;;;;5054601;28;20465;-66
2022/05/22 07:40:51;;;;;;;5.70;2.35;;;;;;;;;;5053589;28;20047;-66
2022/05/22 07:43:17;;;;;;;9.68;2.80;;;;;;;;;;5054372;28;20025;-66
2022/05/22 07:45:44;;;;;;;5.47;2.55;;;;;;;;;;5054595;28;20028;-69
2022/05/22 07:48:10;;;;;;;8.30;2.40;;;;;;;;;;5054744;28;20036;-70
2022/05/22 07:50:36;;;;;;;7.75;2.50;;;;;;;;;;5055447;28;20533;-68
2022/05/22 07:53:03;;;;;;;4.93;2.47;;;;;;;;;;5055396;28;20052;-68
2022/05/22 07:55:30;;;;;;;61.78;3.35;;;;;;;;;;5055267;28;20061;-67
2022/05/22 07:57:56;;;;;;;6.45;1.83;;;;;;;;;;5055515;28;20033;-67
2022/05/22 08:00:22;;;;;;;9.43;2.40;;;;;;;;;;5055263;28;20027;-67
2022/05/22 08:02:48;;;;;;;5.72;2.30;;;;;;;;;;5055351;28;20035;-68
2022/05/22 08:05:17;;;;;;;7.63;2.50;;;;;;;;;;5055033;28;20021;-67
2022/05/22 08:07:43;;;;;;;4.25;2.15;;;;;;;;;;5055053;28;20023;-74
2022/05/22 08:10:09;;;;;;;16.05;2.72;;;;;;;;;;5055101;28;20017;-67
2022/05/22 08:12:39;;;;;;;4.63;2.15;;;;;;;;;;5053753;28;20029;-67
2022/05/22 08:15:06;;;;;;;5.60;2.15;;;;;;;;;;5055079;28;20115;-71
2022/05/22 08:17:36;;;;;;;8.63;1.90;;;;;;;;;;5055142;28;20083;-67
2022/05/22 08:20:03;;;;;;;6.55;2.13;;;;;;;;;;5055639;28;20036;-67
2022/05/22 08:22:30;;;;;;;5.22;1.80;;;;;;;;;;5055259;28;20071;-67
2022/05/22 08:24:56;;;;;;;5.78;2.10;;;;;;;;;;5055386;28;20066;-67
2022/05/22 08:27:22;;;;;;;3.97;2.03;;;;;;;;;;5054284;28;20107;-67
2022/05/22 08:29:48;;;;;;;9.93;2.30;;;;;;;;;;5050225;28;20048;-68
2022/05/22 08:32:14;;;;;;;5.55;1.85;;;;;;;;;;5050892;28;20051;-68
2022/05/22 08:34:40;;;;;;;8.98;2.30;;;;;;;;;;5053047;28;20480;-67
2022/05/22 08:37:06;;;;;;;6.90;2.20;;;;;;;;;;5054337;28;20040;-67
2022/05/22 08:39:32;;;;;;;6.97;2.75;;;;;;;;;;5055129;28;20025;-67
2022/05/22 08:41:59;;;;;;;9.50;2.10;;;;;;;;;;5055140;28;20436;-67
2022/05/22 08:44:31;;;;;;;6.90;2.17;;;;;;;;;;5055181;28;20106;-67
2022/05/22 08:47:12;;;;;;;4.68;2.22;;;;;;;;;;5054899;28;20488;-67
2022/05/22 08:49:47;;;;;;;5.75;2.03;;;;;;;;;;5055038;28;20469;-67
2022/05/22 08:52:20;;;;;;;5.65;1.98;;;;;;;;;;5055215;28;20040;-67
2022/05/22 08:54:58;;;;;;;5.97;1.98;;;;;;;;;;5051102;28;20077;-68
2022/05/22 09:00:11;;;;;;;5.35;1.95;;;;;;;;;;5053599;28;20040;-68
2022/05/22 09:02:45;;;;;;;4.28;1.85;;;;;;;;;;5054523;28;20025;-68
2022/05/22 09:05:17;;;;;;;5.43;2.28;;;;;;;;;;5054264;28;20470;-67
2022/05/22 09:07:56;;;;;;;4.45;1.60;;;;;;;;;;5054252;28;20464;-67
2022/05/22 09:10:48;;;;;;;4.78;2.35;;;;;;;;;;5054263;28;20392;-67
2022/05/22 09:13:27;;;;;;;3.95;2.00;;;;;;;;;;5060631;28;20082;-67
2022/05/22 09:16:06;;;;;;;3.53;1.77;;;;;;;;;;5053864;28;20033;-67
2022/05/22 09:18:34;;;;;;;3.95;2.30;;;;;;;;;;5054117;28;20032;-67
2022/05/22 09:21:12;;;;;;;5.70;2.13;;;;;;;;;;5054132;28;20051;-67
2022/05/22 09:23:38;;;;;;;8.00;2.20;;;;;;;;;;5053962;28;20362;-67
2022/05/22 09:26:07;;;;;;;4.00;1.90;;;;;;;;;;5054087;28;20025;-67
2022/05/22 09:28:42;;;;;;;7.30;1.75;;;;;;;;;;5054061;28;20025;-67
2022/05/22 09:31:27;;;;;;;3.80;1.98;;;;;;;;;;5053813;28;20362;-64
2022/05/22 09:33:53;;;;;;;3.60;1.58;;;;;;;;;;5053981;28;20170;-67
2022/05/22 09:36:22;;;;;;;5.63;1.73;;;;;;;;;;5053408;28;20532;-67
2022/05/22 09:39:12;;;;;;;3.83;1.85;;;;;;;;;;5053765;28;20051;-67
2022/05/22 09:41:53;;;;;;;6.22;1.65;;;;;;;;;;5053719;28;20117;-67
2022/05/22 09:44:34;;;;;;;3.25;2.00;;;;;;;;;;5053927;28;20028;-67
2022/05/22 09:47:10;;;;;;;5.00;2.05;;;;;;;;;;5053701;28;20359;-67
2022/05/22 09:49:39;;;;;;;3.25;1.83;;;;;;;;;;5053948;28;20036;-68
2022/05/22 09:52:12;;;;;;;7.05;1.98;;;;;;;;;;5053782;28;20116;-67
2022/05/22 09:54:41;;;;;;;8.18;1.88;;;;;;;;;;5053549;28;20086;-69
2022/05/22 09:57:25;;;;;;;8.25;1.95;;;;;;;;;;5053385;28;20401;-67
2022/05/22 10:00:00;;;;;;;8.90;1.92;;;;;;;;;;5053511;28;20028;-67
2022/05/22 10:02:35;;;;;;;4.00;1.65;;;;;;;;;;5053562;28;20025;-67
2022/05/22 10:05:11;;;;;;;7.95;1.85;;;;;;;;;;5053475;28;20099;-67
2022/05/22 10:07:42;;;;;;;7.68;1.60;;;;;;;;;;5053487;28;20074;-67
2022/05/22 10:10:18;;;;;;;5.47;1.88;;;;;;;;;;5053252;28;20108;-67
2022/05/22 10:12:49;;;;;;;5.57;1.85;;;;;;;;;;5053494;28;20036;-67
2022/05/22 10:15:20;;;;;;;4.20;1.77;;;;;;;;;;5053350;28;20245;-67
2022/05/22 10:17:48;;;;;;;;;;;;;;;;;;5053678;28;20037;-67
2022/05/22 10:20:21;;;;;;;5.88;2.15;;;;;;;;;;5053175;28;19927;-67
2022/05/22 10:23:07;;;;;;;3.25;1.92;;;;;;;;;;5053491;28;20029;-67
2022/05/22 10:25:41;;;;;;;7.60;2.05;;;;;;;;;;5053243;28;20102;-67
2022/05/22 10:28:13;;;;;;;5.10;2.00;;;;;;;;;;5053249;28;20478;-67
2022/05/22 10:30:45;;;;;;;7.18;2.22;;;;;;;;;;5053494;28;20056;-67
2022/05/22 10:33:15;;;;;;;4.80;2.60;;;;;;;;;;5053300;28;20037;-67
2022/05/22 10:35:57;;;;;;;8.75;2.20;;;;;;;;;;5052840;28;20104;-65
2022/05/22 10:38:26;;;;;;;4.57;1.88;;;;;;;;;;5052893;28;20040;-68
2022/05/22 10:43:40;;;;;;;4.25;1.85;;;;;;;;;;5052897;28;20079;-67
2022/05/22 10:46:06;;;;;;;6.38;2.00;;;;;;;;;;5053153;28;20099;-67
2022/05/22 10:48:35;;;;;;;6.65;2.05;;;;;;;;;;5056128;28;20079;-68
2022/05/22 10:51:05;;;;;;;3.72;2.00;;;;;;;;;;5056933;28;20025;-66
2022/05/22 10:53:34;;;;;;;6.77;2.00;;;;;;;;;;5056692;28;20425;-65
2022/05/22 10:56:05;;;;;;;4.90;1.90;;;;;;;;;;5056901;28;20041;-65
2022/05/22 10:58:32;;;;;;;5.40;1.90;;;;;;;;;;5055157;28;20031;-65
2022/05/22 11:01:00;;;;;;;3.45;1.83;;;;;;;;;;5053880;28;20561;-65
2022/05/22 11:03:27;;;;;;;8.02;1.90;;;;;;;;;;5055074;28;20021;-65
2022/05/22 11:05:54;;;;;;;9.07;2.10;;;;;;;;;;5056767;28;20061;-65
2022/05/22 11:08:46;;;;;;;6.65;2.53;;;;;;;;;;5056898;28;20028;-72
2022/05/22 11:11:13;;;;;;;4.18;2.17;;;;;;;;;;5056953;28;20443;-65
2022/05/22 11:13:39;;;;;;;4.97;2.00;;;;;;;;;;5056869;28;20036;-65
2022/05/22 11:16:16;;;;;;;6.97;2.30;;;;;;;;;;5056234;28;20041;-65
2022/05/22 11:18:42;;;;;;;11.82;2.40;;;;;;;;;;5055685;28;20021;-66
2022/05/22 11:21:11;;;;;;;7.90;2.65;;;;;;;;;;5055718;28;20033;-66
2022/05/22 11:23:56;;;;;;;4.72;2.25;;;;;;;;;;5054020;28;20020;-66
2022/05/22 11:26:40;;;;;;;5.25;2.05;;;;;;;;;;5053326;28;20539;-66
2022/05/22 11:29:15;;;;;;;4.72;2.53;;;;;;;;;;5053750;28;20527;-67
2022/05/22 11:31:54;;;;;;;5.03;1.98;;;;;;;;;;5055862;28;20021;-66
2022/05/22 11:34:32;;;;;;;4.43;2.15;;;;;;;;;;5056003;28;20469;-66
2022/05/22 11:37:22;;;;;;;4.85;2.15;;;;;;;;;;5055749;28;20029;-66
2022/05/22 11:40:07;;;;;;;8.55;2.25;;;;;;;;;;5055827;28;20048;-67
2022/05/22 11:42:35;;;;;;;6.28;2.40;;;;;;;;;;5056068;28;20017;-66
2022/05/22 11:45:07;;;;;;;3.60;2.03;;;;;;;;;;5055435;28;20078;-66
2022/05/22 11:47:39;;;;;;;9.27;2.40;;;;;;;;;;5055201;28;20052;-66
2022/05/22 11:50:24;;;;;;;4.25;2.22;;;;;;;;;;5055491;28;20477;-66
2022/05/22 11:53:03;;;;;;;3.80;2.10;;;;;;;;;;5055278;28;20635;-68
2022/05/22 11:55:29;;;;;;;9.65;2.30;;;;;;;;;;5055440;28;20367;-66
2022/05/22 11:57:58;;;;;;;5.25;1.73;;;;;;;;;;5055104;28;20059;-66
2022/05/22 12:00:33;;;;;;;3.17;1.98;;;;;;;;;;5055013;28;20033;-66
2022/05/22 12:03:06;;;;;;;5.43;2.17;;;;;;;;;;5055457;28;20025;-66
2022/05/22 12:05:32;;;;;;;4.45;2.25;;;;;;;;;;5055478;28;20032;-66
2022/05/22 12:08:09;;;;;;;3.95;2.05;;;;;;;;;;5055052;28;20025;-67
2022/05/22 12:10:58;;;;;;;5.80;2.40;;;;;;;;;;5055497;28;20052;-66
2022/05/22 12:13:27;;;;;;;5.65;2.17;;;;;;;;;;5054758;28;20017;-67
2022/05/22 12:16:12;;;;;;;9.57;2.05;;;;;;;;;;5052185;28;20539;-67
2022/05/22 12:18:38;;;;;;;3.47;2.05;;;;;;;;;;5052629;28;20025;-66
2022/05/22 12:21:07;;;;;;;3.92;2.05;;;;;;;;;;5055157;28;20025;-66
2022/05/22 12:23:53;;;;;;;5.20;1.88;;;;;;;;;;5055033;28;20362;-66
2022/05/22 12:26:21;;;;;;;6.35;2.20;;;;;;;;;;5054961;28;20497;-67
2022/05/22 12:28:53;;;;;;;3.90;2.08;;;;;;;;;;5055009;28;20025;-67
2022/05/22 12:31:27;;;;;;;4.70;2.13;;;;;;;;;;5055093;28;20489;-66
2022/05/22 12:33:54;;;;;;;3.80;1.90;;;;;;;;;;5051853;28;20082;-66
2022/05/22 12:36:23;;;;;;;7.80;2.33;;;;;;;;;;5052038;28;20049;-67
2022/05/22 12:38:53;;;;;;;3.50;2.05;;;;;;;;;;5053291;28;20021;-70
2022/05/22 12:41:30;;;;;;;4.53;2.28;;;;;;;;;;5054291;28;20021;-66
2022/05/22 12:43:57;;;;;;;14.55;2.38;;;;;;;;;;5054735;28;20092;-66
2022/05/22 12:46:24;;;;;;;5.00;2.05;;;;;;;;;;5054640;28;20057;-65
2022/05/22 12:48:51;;;;;;;4.47;2.10;;;;;;;;;;5054454;28;20021;-65
2022/05/22 12:51:20;;;;;;;8.93;2.17;;;;;;;;;;5054622;28;20032;-66
2022/05/22 12:53:48;;;;;;;4.82;1.90;;;;;;;;;;5053949;28;20088;-65
2022/05/22 12:56:37;;;;;;;9.38;2.10;;;;;;;;;;5054212;28;20029;-66
2022/05/22 12:59:06;;;;;;;6.35;2.33;;;;;;;;;;5054308;28;20124;-65
2022/05/22 13:01:33;;;;;;;5.95;2.17;;;;;;;;;;5054248;28;20029;-66
2022/05/22 13:04:06;;;;;;;4.35;1.83;;;;;;;;;;5053613;28;20017;-66
2022/05/22 13:06:37;;;;;;;7.28;2.38;;;;;;;;;;5054113;28;20060;-66
2022/05/22 13:09:05;;;;;;;9.07;2.30;;;;;;;;;;5054103;28;20075;-66
2022/05/22 13:11:40;;;;;;;7.13;2.42;;;;;;;;;;5053344;28;20503;-66
2022/05/22 13:14:10;;;;;;;5.30;2.20;;;;;;;;;;5053859;28;20021;-66
2022/05/22 13:16:47;;;;;;;6.18;2.08;;;;;;;;;;5053752;28;20041;-66
2022/05/22 13:19:17;;;;;;;8.95;2.08;;;;;;;;;;5053972;28;20071;-72
2022/05/22 13:21:43;;;;;;;5.55;2.35;;;;;;;;;;5053419;28;20060;-73
2022/05/22 13:24:16;;;;;;;5.55;1.90;;;;;;;;;;5053648;28;20025;-66
2022/05/22 13:26:42;;;;;;;5.55;2.30;;;;;;;;;;5053303;28;20060;-66
2022/05/22 13:29:12;;;;;;;7.05;2.25;;;;;;;;;;5053769;28;20021;-66
2022/05/22 13:31:43;;;;;;;5.95;2.30;;;;;;;;;;5053386;28;20032;-66
2022/05/22 13:34:15;;;;;;;4.38;2.20;;;;;;;;;;5053314;28;20025;-65
2022/05/22 13:36:53;;;;;;;8.95;2.55;;;;;;;;;;5053764;28;20401;-65
2022/05/22 13:39:38;;;;;;;4.43;2.30;;;;;;;;;;5053411;28;20021;-64
2022/05/22 13:42:13;;;;;;;8.65;2.50;;;;;;;;;;5053099;28;20470;-66
2022/05/22 13:44:48;;;;;;;8.90;2.65;;;;;;;;;;5053173;28;20021;-65
2022/05/22 13:47:23;;;;;;;6.07;2.38;;;;;;;;;;5053009;28;20056;-70
2022/05/22 13:49:49;;;;;;;3.60;2.25;;;;;;;;;;5053335;28;20052;-71
2022/05/22 13:52:35;;;;;;;4.03;2.03;;;;;;;;;;5053110;28;20071;-67
2022/05/22 13:55:12;;;;;;;4.30;2.10;;;;;;;;;;5052964;28;20374;-65
2022/05/22 13:57:49;;;;;;;8.07;2.63;;;;;;;;;;5052925;28;20159;-73
2022/05/22 14:00:20;;;;;;;5.55;2.38;;;;;;;;;;5052820;28;20045;-68
2022/05/22 14:02:46;;;;;;;7.85;2.70;;;;;;;;;;5052621;28;20063;-65
2022/05/22 14:05:13;;;;;;;14.52;2.80;;;;;;;;;;5052841;28;20029;-66
2022/05/22 14:07:44;;;;;;;7.95;2.92;;;;;;;;;;5053001;28;20139;-72
2022/05/22 14:10:10;;;;;;;9.98;2.47;;;;;;;;;;5052693;28;20848;-73
2022/05/22 14:12:41;;;;;;;5.72;2.90;;;;;;;;;;5052805;28;20104;-69
2022/05/22 14:15:15;;;;;;;7.43;2.83;;;;;;;;;;5052478;28;20112;-72
2022/05/22 14:17:41;;;;;;;7.22;2.90;;;;;;;;;;5052166;28;20039;-72
2022/05/22 14:20:12;;;;;;;8.25;2.80;;;;;;;;;;5052769;28;20466;-72
2022/05/22 14:22:38;;;;;;;15.50;3.22;;;;;;;;;;5052676;28;20410;-67
2022/05/22 14:25:07;;;;;;;4.72;2.80;;;;;;;;;;5052318;28;20104;-65
2022/05/22 14:27:39;;;;;;;8.57;2.83;;;;;;;;;;5052789;28;20029;-68
2022/05/22 14:30:26;;;;;;;6.63;3.03;;;;;;;;;;5052750;28;20099;-67
2022/05/22 14:32:53;;;;;;;6.90;2.85;;;;;;;;;;5055173;28;20111;-65
2022/05/22 14:35:31;;;;;;;8.95;3.10;;;;;;;;;;5052791;28;20021;-63
2022/05/22 14:37:58;;;;;;;7.32;2.97;;;;;;;;;;5052598;28;20036;-65
2022/05/22 14:40:29;;;;;;;9.05;3.22;;;;;;;;;;5052373;28;20437;-65
2022/05/22 14:42:57;;;;;;;6.97;2.97;;;;;;;;;;5051892;28;20056;-65
2022/05/22 14:45:39;;;;;;;9.38;3.15;;;;;;;;;;5048159;28;20036;-66
2022/05/22 14:48:10;;;;;;;4.90;3.10;;;;;;;;;;5049611;28;20533;-66
2022/05/22 14:50:37;;;;;;;11.20;3.30;;;;;;;;;;5051571;28;20037;-65
2022/05/22 14:53:06;;;;;;;8.40;2.97;;;;;;;;;;5052104;28;20068;-65
2022/05/22 14:55:35;;;;;;;10.63;3.30;;;;;;;;;;5051896;28;20499;-66
2022/05/22 14:58:12;;;;;;;7.57;3.33;;;;;;;;;;5051629;28;20079;-65
2022/05/22 15:00:43;;;;;;;5.97;2.88;;;;;;;;;;5051956;28;20029;-73
2022/05/22 15:03:12;;;;;;;5.05;3.15;;;;;;;;;;5051857;28;20500;-66
2022/05/22 15:05:39;;;;;;;21.80;3.72;;;;;;;;;;5050542;28;20033;-67
2022/05/22 15:08:20;;;;;;;6.60;3.17;;;;;;;;;;5049663;28;20924;-67
2022/05/22 15:10:46;;;;;;;11.43;3.20;;;;;;;;;;5050135;28;20416;-71
2022/05/22 15:13:15;;;;;;;6.97;2.80;;;;;;;;;;5049389;28;20355;-67
2022/05/22 15:15:41;;;;;;;14.75;3.78;;;;;;;;;;5049699;28;20381;-67
2022/05/22 15:18:09;;;;;;;10.88;3.35;;;;;;;;;;5049667;28;20028;-67